sensor_id;sensor_type;location;lat;lon;timestamp;temperature;humidity
35531;DHT22;21637;53.352;-6.356;2023-07-28T00:02:17;16.90;99.90
35531;DHT22;21637;53.352;-6.356;2023-07-28T00:04:43;16.90;99.90
35531;DHT22;21637;53.352;-6.356;2023-07-28T00:07:09;16.80;99.90
35531;DHT22;21637;53.352;-6.356;2023-07-28T00:09:35;16.70;99.90
35531;DHT22;21637;53.352;-6.356;2023-07-28T00:12:01;16.70;99.90
35531;DHT22;21637;53.352;-6.356;2023-07-28T00:14:27;16.70;99.90
35531;DHT22;21637;53.352;-6.356;2023-07-28T00:16:54;16.60;99.90
35531;DHT22;21637;53.352;-6.356;2023-07-28T00:19:20;16.50;99.90
35531;DHT22;21637;53.352;-6.356;2023-07-28T00:21:50;16.40;99.90
35531;DHT22;21637;53.352;-6.356;2023-07-28T00:24:16;16.40;99.90
35531;DHT22;21637;53.352;-6.356;2023-07-28T00:26:43;16.40;99.90
35531;DHT22;21637;53.352;-6.356;2023-07-28T00:29:09;16.40;99.90
35531;DHT22;21637;53.352;-6.356;2023-07-28T00:31:34;16.40;99.90
35531;DHT22;21637;53.352;-6.356;2023-07-28T00:34:02;16.30;99.90
35531;DHT22;21637;53.352;-6.356;2023-07-28T00:36:28;16.30;99.90
35531;DHT22;21637;53.352;-6.356;2023-07-28T00:38:54;16.20;99.90
35531;DHT22;21637;53.352;-6.356;2023-07-28T00:41:19;16.00;99.90
35531;DHT22;21637;53.352;-6.356;2023-07-28T00:43:45;16.00;99.90
35531;DHT22;21637;53.352;-6.356;2023-07-28T00:46:11;16.00;99.90
35531;DHT22;21637;53.352;-6.356;2023-07-28T00:48:37;16.10;99.90
35531;DHT22;21637;53.352;-6.356;2023-07-28T00:51:04;15.90;99.90
35531;DHT22;21637;53.352;-6.356;2023-07-28T00:53:30;16.00;99.90
35531;DHT22;21637;53.352;-6.356;2023-07-28T00:55:56;15.90;99.90
35531;DHT22;21637;53.352;-6.356;2023-07-28T00:58:22;16.00;99.90
35531;DHT22;21637;53.352;-6.356;2023-07-28T01:00:48;16.00;99.90
35531;DHT22;21637;53.352;-6.356;2023-07-28T01:03:17;15.90;99.90
35531;DHT22;21637;53.352;-6.356;2023-07-28T01:08:19;15.90;99.90
35531;DHT22;21637;53.352;-6.356;2023-07-28T01:10:47;15.80;99.90
35531;DHT22;21637;53.352;-6.356;2023-07-28T01:13:13;15.80;99.90
35531;DHT22;21637;53.352;-6.356;2023-07-28T01:15:38;15.90;99.90
35531;DHT22;21637;53.352;-6.356;2023-07-28T01:18:04;15.90;99.90
35531;DHT22;21637;53.352;-6.356;2023-07-28T01:20:31;15.80;99.90
35531;DHT22;21637;53.352;-6.356;2023-07-28T01:28:20;15.80;99.90
35531;DHT22;21637;53.352;-6.356;2023-07-28T01:30:46;15.70;99.90
35531;DHT22;21637;53.352;-6.356;2023-07-28T01:33:12;15.70;99.90
35531;DHT22;21637;53.352;-6.356;2023-07-28T01:35:38;15.70;99.90
35531;DHT22;21637;53.352;-6.356;2023-07-28T01:38:04;15.70;99.90
35531;DHT22;21637;53.352;-6.356;2023-07-28T01:40:30;15.70;99.90
35531;DHT22;21637;53.352;-6.356;2023-07-28T01:42:56;15.70;99.90
35531;DHT22;21637;53.352;-6.356;2023-07-28T01:45:22;15.80;99.90
35531;DHT22;21637;53.352;-6.356;2023-07-28T01:47:47;15.80;99.90
35531;DHT22;21637;53.352;-6.356;2023-07-28T01:50:13;15.80;99.90
35531;DHT22;21637;53.352;-6.356;2023-07-28T01:52:39;15.80;99.90
35531;DHT22;21637;53.352;-6.356;2023-07-28T01:55:05;15.90;99.90
35531;DHT22;21637;53.352;-6.356;2023-07-28T01:57:35;15.90;99.90
35531;DHT22;21637;53.352;-6.356;2023-07-28T02:00:01;15.90;99.90
35531;DHT22;21637;53.352;-6.356;2023-07-28T02:02:28;15.80;99.90
35531;DHT22;21637;53.352;-6.356;2023-07-28T02:04:54;15.80;99.90
35531;DHT22;21637;53.352;-6.356;2023-07-28T02:07:20;15.70;99.90
35531;DHT22;21637;53.352;-6.356;2023-07-28T02:09:46;15.70;99.90
35531;DHT22;21637;53.352;-6.356;2023-07-28T02:12:11;15.60;99.90
35531;DHT22;21637;53.352;-6.356;2023-07-28T02:14:37;15.60;99.90
35531;DHT22;21637;53.352;-6.356;2023-07-28T02:17:03;15.70;99.90
35531;DHT22;21637;53.352;-6.356;2023-07-28T02:19:29;15.70;99.90
35531;DHT22;21637;53.352;-6.356;2023-07-28T02:21:54;15.70;99.90
35531;DHT22;21637;53.352;-6.356;2023-07-28T02:24:20;15.80;99.90
35531;DHT22;21637;53.352;-6.356;2023-07-28T02:26:46;15.80;99.90
35531;DHT22;21637;53.352;-6.356;2023-07-28T02:29:11;15.80;99.90
35531;DHT22;21637;53.352;-6.356;2023-07-28T02:31:37;15.70;99.90
35531;DHT22;21637;53.352;-6.356;2023-07-28T02:34:03;15.70;99.90
35531;DHT22;21637;53.352;-6.356;2023-07-28T02:36:28;15.70;99.90
35531;DHT22;21637;53.352;-6.356;2023-07-28T02:38:54;15.70;99.90
35531;DHT22;21637;53.352;-6.356;2023-07-28T02:41:20;15.70;99.90
35531;DHT22;21637;53.352;-6.356;2023-07-28T02:43:46;15.70;99.90
35531;DHT22;21637;53.352;-6.356;2023-07-28T02:46:11;15.60;99.90
35531;DHT22;21637;53.352;-6.356;2023-07-28T02:48:37;15.60;99.90
35531;DHT22;21637;53.352;-6.356;2023-07-28T02:51:03;15.60;99.90
35531;DHT22;21637;53.352;-6.356;2023-07-28T02:53:28;15.60;99.90
35531;DHT22;21637;53.352;-6.356;2023-07-28T02:55:54;15.60;99.90
35531;DHT22;21637;53.352;-6.356;2023-07-28T02:58:21;15.60;99.90
35531;DHT22;21637;53.352;-6.356;2023-07-28T03:00:47;15.60;99.90
35531;DHT22;21637;53.352;-6.356;2023-07-28T03:03:13;15.70;99.90
35531;DHT22;21637;53.352;-6.356;2023-07-28T03:05:39;15.70;99.90
35531;DHT22;21637;53.352;-6.356;2023-07-28T03:08:05;15.70;99.90
35531;DHT22;21637;53.352;-6.356;2023-07-28T03:10:32;15.70;99.90
35531;DHT22;21637;53.352;-6.356;2023-07-28T03:12:58;15.70;99.90
35531;DHT22;21637;53.352;-6.356;2023-07-28T03:15:24;15.80;99.90
35531;DHT22;21637;53.352;-6.356;2023-07-28T03:17:50;15.80;99.90
35531;DHT22;21637;53.352;-6.356;2023-07-28T03:20:16;15.90;99.90
35531;DHT22;21637;53.352;-6.356;2023-07-28T03:22:42;15.80;99.90
35531;DHT22;21637;53.352;-6.356;2023-07-28T03:25:08;15.80;99.90
35531;DHT22;21637;53.352;-6.356;2023-07-28T03:27:34;15.80;99.90
35531;DHT22;21637;53.352;-6.356;2023-07-28T03:30:00;15.80;99.90
35531;DHT22;21637;53.352;-6.356;2023-07-28T03:32:26;15.80;99.90
35531;DHT22;21637;53.352;-6.356;2023-07-28T03:34:52;15.80;99.90
35531;DHT22;21637;53.352;-6.356;2023-07-28T03:37:18;15.80;99.90
35531;DHT22;21637;53.352;-6.356;2023-07-28T03:39:44;15.80;99.90
35531;DHT22;21637;53.352;-6.356;2023-07-28T03:42:10;15.80;99.90
35531;DHT22;21637;53.352;-6.356;2023-07-28T03:44:36;15.80;99.90
35531;DHT22;21637;53.352;-6.356;2023-07-28T03:47:07;15.90;99.90
35531;DHT22;21637;53.352;-6.356;2023-07-28T03:49:33;15.90;99.90
35531;DHT22;21637;53.352;-6.356;2023-07-28T03:51:58;15.90;99.90
35531;DHT22;21637;53.352;-6.356;2023-07-28T03:54:24;15.80;99.90
35531;DHT22;21637;53.352;-6.356;2023-07-28T03:56:50;15.80;99.90
35531;DHT22;21637;53.352;-6.356;2023-07-28T03:59:15;15.90;99.90
35531;DHT22;21637;53.352;-6.356;2023-07-28T04:01:41;15.90;99.90
35531;DHT22;21637;53.352;-6.356;2023-07-28T04:04:07;15.90;99.90
35531;DHT22;21637;53.352;-6.356;2023-07-28T04:09:07;15.90;99.90
35531;DHT22;21637;53.352;-6.356;2023-07-28T04:11:33;15.90;99.90
35531;DHT22;21637;53.352;-6.356;2023-07-28T04:13:59;16.00;99.90
35531;DHT22;21637;53.352;-6.356;2023-07-28T04:16:25;15.90;99.90
35531;DHT22;21637;53.352;-6.356;2023-07-28T04:18:51;16.00;99.90
35531;DHT22;21637;53.352;-6.356;2023-07-28T04:21:16;16.00;99.90
35531;DHT22;21637;53.352;-6.356;2023-07-28T04:23:42;16.00;99.90
35531;DHT22;21637;53.352;-6.356;2023-07-28T04:26:09;15.90;99.90
35531;DHT22;21637;53.352;-6.356;2023-07-28T04:28:34;16.00;99.90
35531;DHT22;21637;53.352;-6.356;2023-07-28T04:31:00;16.00;99.90
35531;DHT22;21637;53.352;-6.356;2023-07-28T04:33:26;16.00;99.90
35531;DHT22;21637;53.352;-6.356;2023-07-28T04:35:52;16.00;99.90
35531;DHT22;21637;53.352;-6.356;2023-07-28T04:38:17;16.00;99.90
35531;DHT22;21637;53.352;-6.356;2023-07-28T04:40:44;16.00;99.90
35531;DHT22;21637;53.352;-6.356;2023-07-28T04:43:10;16.00;99.90
35531;DHT22;21637;53.352;-6.356;2023-07-28T04:45:36;16.00;99.90
35531;DHT22;21637;53.352;-6.356;2023-07-28T04:48:02;16.00;99.90
35531;DHT22;21637;53.352;-6.356;2023-07-28T04:50:28;16.10;99.90
35531;DHT22;21637;53.352;-6.356;2023-07-28T04:52:54;16.00;99.90
35531;DHT22;21637;53.352;-6.356;2023-07-28T04:55:20;16.00;99.90
35531;DHT22;21637;53.352;-6.356;2023-07-28T04:57:46;16.10;99.90
35531;DHT22;21637;53.352;-6.356;2023-07-28T05:00:12;16.00;99.90
35531;DHT22;21637;53.352;-6.356;2023-07-28T05:02:38;16.00;99.90
35531;DHT22;21637;53.352;-6.356;2023-07-28T05:05:04;16.00;99.90
35531;DHT22;21637;53.352;-6.356;2023-07-28T05:07:30;16.00;99.90
35531;DHT22;21637;53.352;-6.356;2023-07-28T05:09:55;16.00;99.90
35531;DHT22;21637;53.352;-6.356;2023-07-28T05:12:21;16.00;99.90
35531;DHT22;21637;53.352;-6.356;2023-07-28T05:14:47;16.10;99.90
35531;DHT22;21637;53.352;-6.356;2023-07-28T05:17:13;16.10;99.90
35531;DHT22;21637;53.352;-6.356;2023-07-28T05:19:38;16.10;99.90
35531;DHT22;21637;53.352;-6.356;2023-07-28T05:22:04;16.10;99.90
35531;DHT22;21637;53.352;-6.356;2023-07-28T05:24:32;16.10;99.90
35531;DHT22;21637;53.352;-6.356;2023-07-28T05:26:58;16.20;99.90
35531;DHT22;21637;53.352;-6.356;2023-07-28T05:29:24;16.10;99.90
35531;DHT22;21637;53.352;-6.356;2023-07-28T05:31:50;16.10;99.90
35531;DHT22;21637;53.352;-6.356;2023-07-28T05:34:16;16.00;99.90
35531;DHT22;21637;53.352;-6.356;2023-07-28T05:36:42;16.00;99.90
35531;DHT22;21637;53.352;-6.356;2023-07-28T05:39:08;16.00;99.90
35531;DHT22;21637;53.352;-6.356;2023-07-28T05:41:34;16.10;99.90
35531;DHT22;21637;53.352;-6.356;2023-07-28T05:43:59;16.10;99.90
35531;DHT22;21637;53.352;-6.356;2023-07-28T05:46:25;16.10;99.90
35531;DHT22;21637;53.352;-6.356;2023-07-28T05:48:51;16.10;99.90
35531;DHT22;21637;53.352;-6.356;2023-07-28T05:51:16;16.10;99.90
35531;DHT22;21637;53.352;-6.356;2023-07-28T05:53:42;16.10;99.90
35531;DHT22;21637;53.352;-6.356;2023-07-28T05:56:08;16.20;99.90
35531;DHT22;21637;53.352;-6.356;2023-07-28T05:58:33;16.20;99.90
35531;DHT22;21637;53.352;-6.356;2023-07-28T06:00:59;16.30;99.90
35531;DHT22;21637;53.352;-6.356;2023-07-28T06:03:25;16.30;99.90
35531;DHT22;21637;53.352;-6.356;2023-07-28T06:05:52;16.30;99.90
35531;DHT22;21637;53.352;-6.356;2023-07-28T06:08:17;16.40;99.90
35531;DHT22;21637;53.352;-6.356;2023-07-28T06:10:43;16.40;99.90
35531;DHT22;21637;53.352;-6.356;2023-07-28T06:13:09;16.40;99.90
35531;DHT22;21637;53.352;-6.356;2023-07-28T06:15:34;16.40;99.90
35531;DHT22;21637;53.352;-6.356;2023-07-28T06:18:01;16.30;99.90
35531;DHT22;21637;53.352;-6.356;2023-07-28T06:20:28;16.30;99.90
35531;DHT22;21637;53.352;-6.356;2023-07-28T06:22:54;16.30;99.90
35531;DHT22;21637;53.352;-6.356;2023-07-28T06:25:20;16.40;99.90
35531;DHT22;21637;53.352;-6.356;2023-07-28T06:27:47;16.30;99.90
35531;DHT22;21637;53.352;-6.356;2023-07-28T06:30:12;16.30;99.90
35531;DHT22;21637;53.352;-6.356;2023-07-28T06:32:38;16.30;99.90
35531;DHT22;21637;53.352;-6.356;2023-07-28T06:35:05;16.30;99.90
35531;DHT22;21637;53.352;-6.356;2023-07-28T06:37:32;16.40;99.90
35531;DHT22;21637;53.352;-6.356;2023-07-28T06:39:58;16.40;99.90
35531;DHT22;21637;53.352;-6.356;2023-07-28T06:42:24;16.40;99.90
35531;DHT22;21637;53.352;-6.356;2023-07-28T06:44:51;16.40;99.90
35531;DHT22;21637;53.352;-6.356;2023-07-28T06:47:18;16.40;99.90
35531;DHT22;21637;53.352;-6.356;2023-07-28T06:49:44;16.40;99.90
35531;DHT22;21637;53.352;-6.356;2023-07-28T06:52:10;16.40;99.90
35531;DHT22;21637;53.352;-6.356;2023-07-28T06:54:36;16.50;99.90
35531;DHT22;21637;53.352;-6.356;2023-07-28T06:57:02;16.70;99.90
35531;DHT22;21637;53.352;-6.356;2023-07-28T06:59:28;17.00;99.90
35531;DHT22;21637;53.352;-6.356;2023-07-28T07:01:54;17.20;99.90
35531;DHT22;21637;53.352;-6.356;2023-07-28T07:04:19;17.40;99.90
35531;DHT22;21637;53.352;-6.356;2023-07-28T07:06:45;17.50;99.90
35531;DHT22;21637;53.352;-6.356;2023-07-28T07:09:11;17.60;99.90
35531;DHT22;21637;53.352;-6.356;2023-07-28T07:11:40;17.80;99.90
35531;DHT22;21637;53.352;-6.356;2023-07-28T07:14:09;18.00;99.90
35531;DHT22;21637;53.352;-6.356;2023-07-28T07:16:34;18.00;99.90
35531;DHT22;21637;53.352;-6.356;2023-07-28T07:19:00;18.10;99.90
35531;DHT22;21637;53.352;-6.356;2023-07-28T07:21:27;18.10;99.90
35531;DHT22;21637;53.352;-6.356;2023-07-28T07:23:53;18.10;99.90
35531;DHT22;21637;53.352;-6.356;2023-07-28T07:26:19;18.00;99.90
35531;DHT22;21637;53.352;-6.356;2023-07-28T07:28:45;18.10;99.90
35531;DHT22;21637;53.352;-6.356;2023-07-28T07:31:14;18.10;99.90
35531;DHT22;21637;53.352;-6.356;2023-07-28T07:33:40;18.00;99.90
35531;DHT22;21637;53.352;-6.356;2023-07-28T07:36:12;18.00;99.90
35531;DHT22;21637;53.352;-6.356;2023-07-28T07:38:39;18.00;99.90
35531;DHT22;21637;53.352;-6.356;2023-07-28T07:41:06;18.10;99.90
35531;DHT22;21637;53.352;-6.356;2023-07-28T07:43:33;18.00;99.90
35531;DHT22;21637;53.352;-6.356;2023-07-28T07:45:59;18.10;99.90
35531;DHT22;21637;53.352;-6.356;2023-07-28T07:48:24;18.20;99.90
35531;DHT22;21637;53.352;-6.356;2023-07-28T07:50:51;18.20;99.90
35531;DHT22;21637;53.352;-6.356;2023-07-28T07:53:17;18.30;99.90
35531;DHT22;21637;53.352;-6.356;2023-07-28T07:55:43;18.40;99.90
35531;DHT22;21637;53.352;-6.356;2023-07-28T07:58:08;18.30;99.90
35531;DHT22;21637;53.352;-6.356;2023-07-28T08:00:37;18.30;99.90
35531;DHT22;21637;53.352;-6.356;2023-07-28T08:03:04;18.30;99.90
35531;DHT22;21637;53.352;-6.356;2023-07-28T08:05:30;18.40;99.90
35531;DHT22;21637;53.352;-6.356;2023-07-28T08:07:56;18.30;99.90
35531;DHT22;21637;53.352;-6.356;2023-07-28T08:10:22;18.40;99.90
35531;DHT22;21637;53.352;-6.356;2023-07-28T08:12:48;18.40;99.90
35531;DHT22;21637;53.352;-6.356;2023-07-28T08:15:14;18.40;99.90
35531;DHT22;21637;53.352;-6.356;2023-07-28T08:17:40;18.50;99.90
35531;DHT22;21637;53.352;-6.356;2023-07-28T08:20:07;18.40;99.90
35531;DHT22;21637;53.352;-6.356;2023-07-28T08:22:33;18.50;99.90
35531;DHT22;21637;53.352;-6.356;2023-07-28T08:24:58;18.60;99.90
35531;DHT22;21637;53.352;-6.356;2023-07-28T08:27:24;18.60;99.90
35531;DHT22;21637;53.352;-6.356;2023-07-28T08:29:50;18.90;99.90
35531;DHT22;21637;53.352;-6.356;2023-07-28T08:32:16;19.10;99.90
35531;DHT22;21637;53.352;-6.356;2023-07-28T08:34:42;19.30;99.90
35531;DHT22;21637;53.352;-6.356;2023-07-28T08:37:08;19.30;99.90
35531;DHT22;21637;53.352;-6.356;2023-07-28T08:39:34;19.40;99.90
35531;DHT22;21637;53.352;-6.356;2023-07-28T08:42:03;19.40;99.90
35531;DHT22;21637;53.352;-6.356;2023-07-28T08:44:31;19.50;99.90
35531;DHT22;21637;53.352;-6.356;2023-07-28T08:46:59;19.60;99.90
35531;DHT22;21637;53.352;-6.356;2023-07-28T08:49:25;19.80;99.90
35531;DHT22;21637;53.352;-6.356;2023-07-28T08:51:56;19.90;99.90
35531;DHT22;21637;53.352;-6.356;2023-07-28T08:54:23;20.00;99.90
35531;DHT22;21637;53.352;-6.356;2023-07-28T08:56:49;20.10;99.90
35531;DHT22;21637;53.352;-6.356;2023-07-28T08:59:21;20.10;99.90
35531;DHT22;21637;53.352;-6.356;2023-07-28T09:01:50;20.10;99.90
35531;DHT22;21637;53.352;-6.356;2023-07-28T09:04:16;20.10;99.90
35531;DHT22;21637;53.352;-6.356;2023-07-28T09:06:48;20.10;99.90
35531;DHT22;21637;53.352;-6.356;2023-07-28T09:09:15;20.10;99.90
35531;DHT22;21637;53.352;-6.356;2023-07-28T09:11:47;19.90;99.90
35531;DHT22;21637;53.352;-6.356;2023-07-28T09:14:14;19.90;99.90
35531;DHT22;21637;53.352;-6.356;2023-07-28T09:16:42;19.80;99.90
35531;DHT22;21637;53.352;-6.356;2023-07-28T09:19:08;19.90;99.90
35531;DHT22;21637;53.352;-6.356;2023-07-28T09:21:35;20.00;99.90
35531;DHT22;21637;53.352;-6.356;2023-07-28T09:24:05;20.00;99.90
35531;DHT22;21637;53.352;-6.356;2023-07-28T09:26:47;20.10;99.90
35531;DHT22;21637;53.352;-6.356;2023-07-28T09:29:20;20.10;99.90
35531;DHT22;21637;53.352;-6.356;2023-07-28T09:31:47;19.90;99.90
35531;DHT22;21637;53.352;-6.356;2023-07-28T09:34:22;19.90;99.90
35531;DHT22;21637;53.352;-6.356;2023-07-28T09:36:49;19.80;99.90
35531;DHT22;21637;53.352;-6.356;2023-07-28T09:39:14;19.60;99.90
35531;DHT22;21637;53.352;-6.356;2023-07-28T09:41:42;19.50;99.90
35531;DHT22;21637;53.352;-6.356;2023-07-28T09:44:09;19.50;99.90
35531;DHT22;21637;53.352;-6.356;2023-07-28T09:46:35;19.40;99.90
35531;DHT22;21637;53.352;-6.356;2023-07-28T09:49:05;19.30;99.90
35531;DHT22;21637;53.352;-6.356;2023-07-28T09:51:31;19.10;99.90
35531;DHT22;21637;53.352;-6.356;2023-07-28T09:54:05;19.20;99.90
35531;DHT22;21637;53.352;-6.356;2023-07-28T09:56:31;19.00;99.90
35531;DHT22;21637;53.352;-6.356;2023-07-28T09:58:58;19.00;99.90
35531;DHT22;21637;53.352;-6.356;2023-07-28T10:01:24;19.10;99.90
35531;DHT22;21637;53.352;-6.356;2023-07-28T10:03:51;19.20;99.90
35531;DHT22;21637;53.352;-6.356;2023-07-28T10:06:20;19.40;99.90
35531;DHT22;21637;53.352;-6.356;2023-07-28T10:08:48;19.60;99.90
35531;DHT22;21637;53.352;-6.356;2023-07-28T10:11:15;19.80;99.90
35531;DHT22;21637;53.352;-6.356;2023-07-28T10:13:43;19.90;99.90
35531;DHT22;21637;53.352;-6.356;2023-07-28T10:16:10;20.10;99.90
35531;DHT22;21637;53.352;-6.356;2023-07-28T10:18:36;20.30;99.90
35531;DHT22;21637;53.352;-6.356;2023-07-28T10:21:06;20.40;99.90
35531;DHT22;21637;53.352;-6.356;2023-07-28T10:23:36;20.60;99.90
35531;DHT22;21637;53.352;-6.356;2023-07-28T10:26:04;20.70;99.90
35531;DHT22;21637;53.352;-6.356;2023-07-28T10:28:37;20.70;99.90
35531;DHT22;21637;53.352;-6.356;2023-07-28T10:31:10;20.90;99.90
35531;DHT22;21637;53.352;-6.356;2023-07-28T10:33:41;21.00;99.90
35531;DHT22;21637;53.352;-6.356;2023-07-28T10:39:02;21.00;99.90
35531;DHT22;21637;53.352;-6.356;2023-07-28T10:41:37;21.00;99.90
35531;DHT22;21637;53.352;-6.356;2023-07-28T10:44:03;21.10;99.90
35531;DHT22;21637;53.352;-6.356;2023-07-28T10:46:29;21.20;99.90
35531;DHT22;21637;53.352;-6.356;2023-07-28T10:48:54;21.20;99.90
35531;DHT22;21637;53.352;-6.356;2023-07-28T10:51:25;21.20;99.90
35531;DHT22;21637;53.352;-6.356;2023-07-28T10:53:54;21.30;99.90
35531;DHT22;21637;53.352;-6.356;2023-07-28T10:56:20;21.30;99.90
35531;DHT22;21637;53.352;-6.356;2023-07-28T10:58:47;21.40;99.90
35531;DHT22;21637;53.352;-6.356;2023-07-28T11:01:21;21.40;99.90
35531;DHT22;21637;53.352;-6.356;2023-07-28T11:03:46;21.50;99.90
35531;DHT22;21637;53.352;-6.356;2023-07-28T11:06:12;21.60;99.90
35531;DHT22;21637;53.352;-6.356;2023-07-28T11:08:38;21.70;99.90
35531;DHT22;21637;53.352;-6.356;2023-07-28T11:11:04;21.80;99.90
35531;DHT22;21637;53.352;-6.356;2023-07-28T11:13:31;21.90;99.90
35531;DHT22;21637;53.352;-6.356;2023-07-28T11:15:57;22.00;99.90
35531;DHT22;21637;53.352;-6.356;2023-07-28T11:18:25;22.00;99.90
35531;DHT22;21637;53.352;-6.356;2023-07-28T11:20:51;22.10;99.90
35531;DHT22;21637;53.352;-6.356;2023-07-28T11:23:17;22.10;99.90
35531;DHT22;21637;53.352;-6.356;2023-07-28T11:25:43;21.90;99.90
35531;DHT22;21637;53.352;-6.356;2023-07-28T11:28:09;21.80;99.90
35531;DHT22;21637;53.352;-6.356;2023-07-28T11:30:36;21.80;99.90
35531;DHT22;21637;53.352;-6.356;2023-07-28T11:33:09;21.70;99.90
35531;DHT22;21637;53.352;-6.356;2023-07-28T11:35:37;21.60;99.90
35531;DHT22;21637;53.352;-6.356;2023-07-28T11:38:03;21.70;99.90
35531;DHT22;21637;53.352;-6.356;2023-07-28T11:40:29;21.70;99.90
35531;DHT22;21637;53.352;-6.356;2023-07-28T11:42:55;21.80;99.90
35531;DHT22;21637;53.352;-6.356;2023-07-28T11:45:21;22.00;99.90
35531;DHT22;21637;53.352;-6.356;2023-07-28T11:50:35;22.10;99.90
35531;DHT22;21637;53.352;-6.356;2023-07-28T11:53:02;22.20;99.90
35531;DHT22;21637;53.352;-6.356;2023-07-28T11:55:29;22.30;99.90
35531;DHT22;21637;53.352;-6.356;2023-07-28T11:57:55;22.40;99.90
35531;DHT22;21637;53.352;-6.356;2023-07-28T12:00:35;22.50;99.90
35531;DHT22;21637;53.352;-6.356;2023-07-28T12:03:03;22.40;99.90
35531;DHT22;21637;53.352;-6.356;2023-07-28T12:05:32;22.60;99.90
35531;DHT22;21637;53.352;-6.356;2023-07-28T12:07:59;22.60;99.90
35531;DHT22;21637;53.352;-6.356;2023-07-28T12:10:24;22.70;99.90
35531;DHT22;21637;53.352;-6.356;2023-07-28T12:12:50;22.70;99.90
35531;DHT22;21637;53.352;-6.356;2023-07-28T12:15:20;22.60;99.90
35531;DHT22;21637;53.352;-6.356;2023-07-28T12:20:44;22.50;99.90
35531;DHT22;21637;53.352;-6.356;2023-07-28T12:23:16;22.70;99.90
35531;DHT22;21637;53.352;-6.356;2023-07-28T12:25:44;23.00;99.90
35531;DHT22;21637;53.352;-6.356;2023-07-28T12:28:10;23.00;99.90
35531;DHT22;21637;53.352;-6.356;2023-07-28T12:30:37;23.00;99.90
35531;DHT22;21637;53.352;-6.356;2023-07-28T12:33:06;22.90;99.90
35531;DHT22;21637;53.352;-6.356;2023-07-28T12:35:33;22.90;99.90
35531;DHT22;21637;53.352;-6.356;2023-07-28T12:38:04;22.80;99.90
35531;DHT22;21637;53.352;-6.356;2023-07-28T12:40:31;22.70;99.90
35531;DHT22;21637;53.352;-6.356;2023-07-28T12:42:57;22.70;99.90
35531;DHT22;21637;53.352;-6.356;2023-07-28T12:45:23;22.50;99.90
35531;DHT22;21637;53.352;-6.356;2023-07-28T12:47:54;22.50;99.90
35531;DHT22;21637;53.352;-6.356;2023-07-28T12:50:23;22.20;99.90
35531;DHT22;21637;53.352;-6.356;2023-07-28T12:52:50;22.10;99.90
35531;DHT22;21637;53.352;-6.356;2023-07-28T12:55:17;22.10;99.90
35531;DHT22;21637;53.352;-6.356;2023-07-28T12:57:43;22.20;99.90
35531;DHT22;21637;53.352;-6.356;2023-07-28T13:00:09;22.20;99.90
35531;DHT22;21637;53.352;-6.356;2023-07-28T13:02:41;22.30;99.90
35531;DHT22;21637;53.352;-6.356;2023-07-28T13:05:09;22.40;99.90
35531;DHT22;21637;53.352;-6.356;2023-07-28T13:07:39;22.30;99.90
35531;DHT22;21637;53.352;-6.356;2023-07-28T13:10:10;22.20;99.90
35531;DHT22;21637;53.352;-6.356;2023-07-28T13:12:36;22.30;99.90
35531;DHT22;21637;53.352;-6.356;2023-07-28T13:15:03;22.20;99.90
35531;DHT22;21637;53.352;-6.356;2023-07-28T13:17:28;22.10;99.90
35531;DHT22;21637;53.352;-6.356;2023-07-28T13:19:54;22.00;99.90
35531;DHT22;21637;53.352;-6.356;2023-07-28T13:22:22;21.70;99.90
35531;DHT22;21637;53.352;-6.356;2023-07-28T13:24:48;21.90;99.90
35531;DHT22;21637;53.352;-6.356;2023-07-28T13:27:14;22.10;99.90
35531;DHT22;21637;53.352;-6.356;2023-07-28T13:29:40;22.20;99.90
35531;DHT22;21637;53.352;-6.356;2023-07-28T13:32:24;22.30;99.90
35531;DHT22;21637;53.352;-6.356;2023-07-28T13:34:50;22.40;99.90
35531;DHT22;21637;53.352;-6.356;2023-07-28T13:37:17;22.50;99.90
35531;DHT22;21637;53.352;-6.356;2023-07-28T13:39:43;22.40;99.90
35531;DHT22;21637;53.352;-6.356;2023-07-28T13:42:09;22.30;99.90
35531;DHT22;21637;53.352;-6.356;2023-07-28T13:44:35;22.10;99.90
35531;DHT22;21637;53.352;-6.356;2023-07-28T13:47:01;22.10;99.90
35531;DHT22;21637;53.352;-6.356;2023-07-28T13:49:26;22.10;99.90
35531;DHT22;21637;53.352;-6.356;2023-07-28T13:51:52;22.00;99.90
35531;DHT22;21637;53.352;-6.356;2023-07-28T13:54:18;22.10;99.90
35531;DHT22;21637;53.352;-6.356;2023-07-28T13:56:43;22.20;99.90
35531;DHT22;21637;53.352;-6.356;2023-07-28T13:59:09;22.20;99.90
35531;DHT22;21637;53.352;-6.356;2023-07-28T14:01:35;22.30;99.90
35531;DHT22;21637;53.352;-6.356;2023-07-28T14:04:00;22.20;99.90
35531;DHT22;21637;53.352;-6.356;2023-07-28T14:06:26;22.10;99.90
35531;DHT22;21637;53.352;-6.356;2023-07-28T14:08:52;22.10;99.90
35531;DHT22;21637;53.352;-6.356;2023-07-28T14:11:18;22.20;99.90
35531;DHT22;21637;53.352;-6.356;2023-07-28T14:13:43;22.20;99.90
35531;DHT22;21637;53.352;-6.356;2023-07-28T14:16:09;22.30;99.90
35531;DHT22;21637;53.352;-6.356;2023-07-28T14:18:35;22.30;99.90
35531;DHT22;21637;53.352;-6.356;2023-07-28T14:21:01;22.30;99.90
35531;DHT22;21637;53.352;-6.356;2023-07-28T14:23:28;22.30;99.90
35531;DHT22;21637;53.352;-6.356;2023-07-28T14:25:54;22.10;99.90
35531;DHT22;21637;53.352;-6.356;2023-07-28T14:28:21;21.90;99.90
35531;DHT22;21637;53.352;-6.356;2023-07-28T14:30:47;21.90;99.90
35531;DHT22;21637;53.352;-6.356;2023-07-28T14:33:14;21.70;99.90
35531;DHT22;21637;53.352;-6.356;2023-07-28T14:35:40;21.70;99.90
35531;DHT22;21637;53.352;-6.356;2023-07-28T14:38:06;21.60;99.90
35531;DHT22;21637;53.352;-6.356;2023-07-28T14:40:32;21.80;99.90
35531;DHT22;21637;53.352;-6.356;2023-07-28T14:42:58;21.90;99.90
35531;DHT22;21637;53.352;-6.356;2023-07-28T14:45:23;22.00;99.90
35531;DHT22;21637;53.352;-6.356;2023-07-28T14:47:49;22.10;99.90
35531;DHT22;21637;53.352;-6.356;2023-07-28T14:50:15;22.20;99.90
35531;DHT22;21637;53.352;-6.356;2023-07-28T14:52:40;22.30;99.90
35531;DHT22;21637;53.352;-6.356;2023-07-28T14:55:07;22.40;99.90
35531;DHT22;21637;53.352;-6.356;2023-07-28T14:57:32;22.60;99.90
35531;DHT22;21637;53.352;-6.356;2023-07-28T14:59:58;22.50;99.90
35531;DHT22;21637;53.352;-6.356;2023-07-28T15:02:24;22.20;99.90
35531;DHT22;21637;53.352;-6.356;2023-07-28T15:04:49;22.00;99.90
35531;DHT22;21637;53.352;-6.356;2023-07-28T15:07:16;21.90;99.90
35531;DHT22;21637;53.352;-6.356;2023-07-28T15:09:44;21.80;99.90
35531;DHT22;21637;53.352;-6.356;2023-07-28T15:12:10;21.60;99.90
35531;DHT22;21637;53.352;-6.356;2023-07-28T15:14:36;21.50;99.90
35531;DHT22;21637;53.352;-6.356;2023-07-28T15:17:01;21.50;99.90
35531;DHT22;21637;53.352;-6.356;2023-07-28T15:19:27;21.50;99.90
35531;DHT22;21637;53.352;-6.356;2023-07-28T15:21:53;21.50;99.90
35531;DHT22;21637;53.352;-6.356;2023-07-28T15:24:18;21.50;99.90
35531;DHT22;21637;53.352;-6.356;2023-07-28T15:26:47;21.40;99.90
35531;DHT22;21637;53.352;-6.356;2023-07-28T15:29:15;21.20;99.90
35531;DHT22;21637;53.352;-6.356;2023-07-28T15:31:41;21.30;99.90